createdAt,value
2024-03-15T00:00:29.664Z,49.08
2024-03-15T00:03:16.765Z,49.11
2024-03-15T00:05:44.568Z,49.09
2024-03-15T00:08:12.056Z,48.67
2024-03-15T00:10:39.197Z,49.24
2024-03-15T00:13:06.122Z,49.26
2024-03-15T00:15:33.334Z,49.52
2024-03-15T00:18:00.176Z,49.45
2024-03-15T00:20:27.332Z,49.64
2024-03-15T00:22:54.199Z,49.59
2024-03-15T00:25:22.633Z,49.51
2024-03-15T00:27:49.991Z,49.56
2024-03-15T00:30:17.173Z,49.63
2024-03-15T00:32:44.056Z,49.83
2024-03-15T00:35:11.309Z,49.74
2024-03-15T00:37:38.269Z,49.73
2024-03-15T00:40:05.751Z,49.80
2024-03-15T00:42:34.207Z,49.87
2024-03-15T00:45:03.047Z,49.50
2024-03-15T00:47:31.181Z,49.82
2024-03-15T00:49:58.306Z,49.76
2024-03-15T00:52:25.059Z,49.82
2024-03-15T00:54:52.504Z,49.90
2024-03-15T00:57:19.738Z,49.87
2024-03-15T00:59:46.896Z,49.80
2024-03-15T01:02:13.672Z,49.94
2024-03-15T01:04:40.846Z,49.72
2024-03-15T01:07:08.639Z,49.98
2024-03-15T01:09:37.321Z,49.83
2024-03-15T01:12:04.312Z,50.06
2024-03-15T01:14:31.460Z,49.84
2024-03-15T01:16:58.336Z,49.95
2024-03-15T01:19:28.495Z,49.89
2024-03-15T01:21:56.020Z,50.00
2024-03-15T01:24:23.157Z,50.08
2024-03-15T01:26:49.943Z,49.98
2024-03-15T01:29:17.030Z,49.94
2024-03-15T01:31:46.640Z,49.88
2024-03-15T01:34:14.309Z,50.00
2024-03-15T01:36:41.144Z,49.82
2024-03-15T01:39:08.583Z,50.17
2024-03-15T01:41:36.046Z,50.21
2024-03-15T01:44:03.226Z,50.24
2024-03-15T01:46:30.420Z,50.25
2024-03-15T01:49:00.994Z,50.03
2024-03-15T01:51:28.776Z,50.16
2024-03-15T01:53:55.825Z,49.89
2024-03-15T01:56:24.136Z,49.94
2024-03-15T01:58:51.189Z,49.94
2024-03-15T02:01:18.137Z,50.19
2024-03-15T02:03:47.710Z,50.13
2024-03-15T02:06:14.651Z,50.13
2024-03-15T02:08:42.426Z,50.14
2024-03-15T02:11:09.238Z,50.02
2024-03-15T02:13:36.360Z,50.25
2024-03-15T02:16:03.282Z,50.33
2024-03-15T02:18:31.991Z,50.15
2024-03-15T02:20:58.833Z,50.32
2024-03-15T02:23:28.740Z,50.25
2024-03-15T02:25:57.277Z,50.24
2024-03-15T02:28:24.384Z,49.92
2024-03-15T02:30:51.401Z,50.00
2024-03-15T02:33:19.199Z,49.95
2024-03-15T02:35:46.625Z,50.29
2024-03-15T02:38:13.834Z,50.10
2024-03-15T02:40:40.566Z,50.28
2024-03-15T02:43:08.197Z,50.04
2024-03-15T02:45:36.203Z,50.48
2024-03-15T02:48:03.380Z,50.18
2024-03-15T02:50:30.399Z,50.13
2024-03-15T02:52:58.554Z,50.29
2024-03-15T02:55:27.300Z,50.23
2024-03-15T02:57:54.540Z,50.17
2024-03-15T03:00:21.474Z,50.31
2024-03-15T03:02:49.016Z,50.23
2024-03-15T03:05:17.658Z,50.52
2024-03-15T03:07:45.699Z,50.17
2024-03-15T03:10:12.600Z,50.50
2024-03-15T03:12:39.823Z,50.02
2024-03-15T03:15:07.767Z,50.13
2024-03-15T03:17:35.023Z,50.39
2024-03-15T03:20:01.971Z,50.23
2024-03-15T03:22:29.055Z,50.32
2024-03-15T03:24:55.938Z,50.35
2024-03-15T03:27:23.008Z,50.39
2024-03-15T03:29:49.876Z,50.32
2024-03-15T03:32:17.478Z,50.27
2024-03-15T03:34:45.112Z,50.27
2024-03-15T03:37:13.782Z,50.46
2024-03-15T03:39:40.629Z,50.45
2024-03-15T03:42:08.925Z,50.41
2024-03-15T03:44:35.814Z,50.27
2024-03-15T03:47:04.891Z,50.64
2024-03-15T03:49:31.699Z,50.01
2024-03-15T03:51:59.064Z,50.54
2024-03-15T03:54:25.988Z,50.75
2024-03-15T03:56:53.110Z,50.38
2024-03-15T03:59:19.896Z,50.50
2024-03-15T04:01:47.033Z,50.01
2024-03-15T04:04:13.882Z,50.44
2024-03-15T04:06:46.859Z,50.51
2024-03-15T04:09:13.795Z,50.45
2024-03-15T04:11:41.313Z,50.64
2024-03-15T04:14:08.139Z,50.47
2024-03-15T04:16:35.583Z,50.31
2024-03-15T04:19:04.235Z,50.25
2024-03-15T04:21:32.267Z,50.20
2024-03-15T04:23:59.778Z,50.17
2024-03-15T04:26:28.200Z,50.10
2024-03-15T04:28:55.906Z,50.44
2024-03-15T04:31:24.045Z,50.44
2024-03-15T04:33:53.660Z,50.31
2024-03-15T04:36:23.590Z,50.57
2024-03-15T04:38:50.399Z,50.23
2024-03-15T04:41:21.800Z,50.20
2024-03-15T04:43:48.900Z,50.54
2024-03-15T04:46:16.000Z,50.44
2024-03-15T04:48:44.566Z,50.68
2024-03-15T04:51:11.714Z,50.60
2024-03-15T04:53:38.957Z,50.36
2024-03-15T04:56:06.349Z,50.59
2024-03-15T04:58:33.988Z,50.52
2024-03-15T05:01:02.420Z,50.59
2024-03-15T05:03:29.490Z,50.33
2024-03-15T05:05:56.667Z,50.79
2024-03-15T05:08:23.529Z,50.47
2024-03-15T05:10:50.717Z,50.68
2024-03-15T05:13:17.596Z,50.51
2024-03-15T05:15:44.741Z,50.28
2024-03-15T05:18:11.772Z,50.41
2024-03-15T05:20:40.433Z,50.56
2024-03-15T05:23:08.193Z,50.47
2024-03-15T05:25:37.001Z,50.37
2024-03-15T05:28:04.009Z,50.15
2024-03-15T05:30:31.685Z,50.42
2024-03-15T05:32:58.630Z,50.60
2024-03-15T05:35:25.899Z,50.35
2024-03-15T05:37:53.019Z,50.41
2024-03-15T05:40:22.308Z,50.51
2024-03-15T05:42:49.497Z,50.44
2024-03-15T05:45:18.054Z,50.59
2024-03-15T05:47:45.164Z,50.35
2024-03-15T05:50:12.525Z,50.28
2024-03-15T05:52:40.229Z,50.73
2024-03-15T05:55:09.946Z,50.80
2024-03-15T05:57:36.900Z,50.70
2024-03-15T06:00:13.768Z,50.75
2024-03-15T06:02:43.389Z,50.37
2024-03-15T06:05:10.764Z,51.06
2024-03-15T06:07:37.691Z,50.90
2024-03-15T06:10:05.812Z,51.21
2024-03-15T06:12:32.986Z,51.16
2024-03-15T06:15:00.390Z,51.39
2024-03-15T06:17:27.649Z,50.98
2024-03-15T06:19:57.144Z,51.16
2024-03-15T06:22:25.257Z,51.15
2024-03-15T06:24:53.503Z,51.02
2024-03-15T06:27:21.740Z,51.18
2024-03-15T06:29:54.078Z,50.95
2024-03-15T06:32:27.376Z,50.91
2024-03-15T06:34:54.964Z,50.83
2024-03-15T06:37:23.839Z,50.76
2024-03-15T06:39:56.911Z,50.24
2024-03-15T06:42:36.695Z,49.94
2024-03-15T06:45:13.438Z,49.92
2024-03-15T06:47:40.602Z,50.37
2024-03-15T06:50:21.948Z,50.23
2024-03-15T06:52:49.167Z,50.13
2024-03-15T06:55:18.616Z,49.72
2024-03-15T06:57:46.703Z,49.79
2024-03-15T07:00:15.637Z,49.59
2024-03-15T07:02:44.196Z,49.88
2024-03-15T07:05:15.326Z,49.55
2024-03-15T07:07:42.657Z,49.56
2024-03-15T07:10:11.769Z,49.63
2024-03-15T07:12:40.751Z,49.67
2024-03-15T07:15:11.017Z,49.24
2024-03-15T07:17:38.606Z,49.40
2024-03-15T07:20:09.438Z,49.22
2024-03-15T07:22:37.309Z,49.24
2024-03-15T07:25:06.846Z,49.15
2024-03-15T07:27:34.365Z,49.01
2024-03-15T07:30:01.641Z,49.12
2024-03-15T07:32:31.674Z,49.28
2024-03-15T07:34:59.051Z,49.12
2024-03-15T07:37:26.092Z,49.33
2024-03-15T07:39:56.600Z,49.42
2024-03-15T07:42:23.890Z,49.16
2024-03-15T07:44:51.166Z,49.00
2024-03-15T07:47:19.363Z,49.07
2024-03-15T07:49:46.822Z,49.03
2024-03-15T07:52:13.860Z,49.09
2024-03-15T07:54:41.391Z,49.04
2024-03-15T07:57:10.457Z,48.60
2024-03-15T07:59:37.853Z,48.64
2024-03-15T08:02:04.996Z,48.79
2024-03-15T08:04:34.627Z,48.52
2024-03-15T08:07:02.281Z,48.75
2024-03-15T08:09:30.159Z,48.48
2024-03-15T08:11:57.296Z,48.20
2024-03-15T08:14:24.694Z,48.17
2024-03-15T08:16:51.823Z,48.30
2024-03-15T08:19:20.043Z,47.91
2024-03-15T08:21:47.369Z,47.65
2024-03-15T08:24:14.724Z,47.78
2024-03-15T08:26:41.591Z,48.07
2024-03-15T08:29:10.369Z,47.95
2024-03-15T08:31:37.640Z,47.71
2024-03-15T08:34:05.584Z,47.44
2024-03-15T08:36:38.673Z,47.28
2024-03-15T08:39:06.766Z,47.38
2024-03-15T08:41:33.621Z,47.21
2024-03-15T08:44:00.804Z,47.07
2024-03-15T08:46:30.918Z,46.85
2024-03-15T08:48:58.900Z,47.20
2024-03-15T08:51:25.814Z,47.00
2024-03-15T08:53:53.722Z,47.07
2024-03-15T08:56:20.909Z,46.98
2024-03-15T08:58:50.517Z,47.07
2024-03-15T09:01:19.786Z,46.80
2024-03-15T09:03:48.786Z,46.66
2024-03-15T09:06:17.318Z,46.75
2024-03-15T09:08:52.362Z,46.70
2024-03-15T09:11:19.524Z,46.30
2024-03-15T09:13:49.470Z,46.43
2024-03-15T09:16:18.033Z,46.19
2024-03-15T09:18:45.493Z,46.62
2024-03-15T09:21:12.503Z,46.51
2024-03-15T09:23:39.920Z,46.35
2024-03-15T09:26:08.515Z,46.53
2024-03-15T09:28:41.487Z,46.32
2024-03-15T09:31:18.550Z,46.60
2024-03-15T09:33:59.340Z,46.33
2024-03-15T09:36:26.530Z,46.14
2024-03-15T09:38:55.452Z,46.03
2024-03-15T09:41:23.089Z,46.46
2024-03-15T09:43:51.147Z,45.92
2024-03-15T09:46:18.363Z,46.30
2024-03-15T09:48:46.099Z,45.99
2024-03-15T09:51:17.903Z,45.81
2024-03-15T09:53:48.117Z,45.81
2024-03-15T09:56:16.138Z,45.41
2024-03-15T09:58:47.915Z,46.88
2024-03-15T10:01:14.820Z,44.15
2024-03-15T10:03:51.324Z,44.66
2024-03-15T10:06:18.978Z,44.42
2024-03-15T10:08:46.213Z,44.60
2024-03-15T10:11:13.304Z,44.53
2024-03-15T10:13:40.526Z,44.37
2024-03-15T10:16:10.363Z,44.14
2024-03-15T10:18:40.675Z,44.28
2024-03-15T10:21:08.264Z,43.58
2024-03-15T10:23:35.576Z,43.58
2024-03-15T10:26:02.634Z,42.83
2024-03-15T10:28:29.940Z,43.04
2024-03-15T10:30:57.204Z,43.75
2024-03-15T10:33:24.654Z,44.24
2024-03-15T10:35:51.532Z,43.82
2024-03-15T10:38:18.742Z,43.66
2024-03-15T10:40:46.128Z,43.89
2024-03-15T10:43:13.547Z,43.75
2024-03-15T10:45:49.613Z,43.69
2024-03-15T10:48:19.289Z,43.24
2024-03-15T10:50:46.624Z,43.17
2024-03-15T10:53:18.457Z,43.24
2024-03-15T10:55:45.288Z,43.12
2024-03-15T10:58:12.525Z,42.92
2024-03-15T11:00:40.048Z,42.55
2024-03-15T11:03:22.708Z,42.66
2024-03-15T11:05:50.895Z,43.29
2024-03-15T11:08:21.379Z,42.95
2024-03-15T11:10:56.273Z,42.96
2024-03-15T11:13:27.122Z,42.80
2024-03-15T11:15:54.406Z,43.35
2024-03-15T11:18:21.858Z,43.05
2024-03-15T11:20:50.881Z,43.10
2024-03-15T11:23:19.333Z,43.12
2024-03-15T11:26:01.671Z,42.97
2024-03-15T11:28:30.324Z,42.68
2024-03-15T11:30:57.767Z,43.10
2024-03-15T11:33:29.211Z,42.73
2024-03-15T11:35:58.035Z,43.03
2024-03-15T11:38:25.234Z,43.05
2024-03-15T11:40:57.248Z,42.67
2024-03-15T11:43:24.529Z,42.64
2024-03-15T11:45:51.927Z,42.31
2024-03-15T11:48:23.193Z,42.58
2024-03-15T11:50:50.953Z,42.43
2024-03-15T11:53:19.852Z,42.42
2024-03-15T11:55:50.018Z,42.26
2024-03-15T11:58:17.804Z,42.48
2024-03-15T12:00:52.091Z,41.87
2024-03-15T12:03:23.878Z,41.78
2024-03-15T12:05:52.329Z,42.19
2024-03-15T12:08:23.660Z,41.39
2024-03-15T12:10:51.208Z,41.91
2024-03-15T12:13:22.027Z,42.03
2024-03-15T12:15:50.069Z,41.92
2024-03-15T12:18:21.562Z,41.46
2024-03-15T12:20:49.109Z,41.64
2024-03-15T12:23:16.827Z,41.32
2024-03-15T12:25:43.749Z,41.66
2024-03-15T12:28:14.956Z,41.18
2024-03-15T12:30:46.017Z,41.18
2024-03-15T12:33:13.607Z,40.07
2024-03-15T12:35:40.972Z,40.81
2024-03-15T12:38:11.894Z,40.46
2024-03-15T12:40:43.905Z,39.34
2024-03-15T12:43:12.073Z,40.56
2024-03-15T12:45:42.163Z,39.63
2024-03-15T12:48:10.477Z,39.79
2024-03-15T12:50:37.749Z,38.93
2024-03-15T12:53:06.783Z,39.89
2024-03-15T12:55:33.692Z,39.45
2024-03-15T12:58:01.058Z,39.45
2024-03-15T13:00:31.369Z,39.84
2024-03-15T13:02:59.291Z,40.23
2024-03-15T13:05:26.989Z,39.43
2024-03-15T13:07:54.363Z,40.02
2024-03-15T13:10:21.321Z,40.19
2024-03-15T13:12:51.755Z,39.56
2024-03-15T13:15:19.206Z,40.47
2024-03-15T13:17:47.147Z,40.32
2024-03-15T13:20:17.240Z,39.78
2024-03-15T13:22:44.860Z,39.57
2024-03-15T13:25:29.365Z,38.96
2024-03-15T13:28:02.622Z,39.19
2024-03-15T13:30:29.511Z,39.08
2024-03-15T13:32:59.689Z,39.95
2024-03-15T13:35:28.906Z,39.81
2024-03-15T13:37:55.985Z,39.05
2024-03-15T13:40:23.782Z,39.53
2024-03-15T13:42:51.994Z,39.59
2024-03-15T13:45:20.020Z,39.93
2024-03-15T13:47:52.188Z,39.62
2024-03-15T13:50:20.655Z,39.90
2024-03-15T13:52:48.239Z,40.01
2024-03-15T13:55:15.251Z,39.95
2024-03-15T13:57:43.187Z,40.21
2024-03-15T14:00:34.002Z,40.44
2024-03-15T14:03:05.381Z,39.45
2024-03-15T14:05:37.092Z,39.80
2024-03-15T14:08:10.505Z,40.11
2024-03-15T14:10:38.709Z,40.18
2024-03-15T14:13:09.162Z,39.94
2024-03-15T14:15:40.309Z,39.79
2024-03-15T14:18:09.246Z,39.85
2024-03-15T14:20:36.887Z,39.84
2024-03-15T14:23:04.457Z,39.79
2024-03-15T14:25:33.718Z,39.92
2024-03-15T14:28:08.697Z,39.90
2024-03-15T14:30:37.519Z,39.70
2024-03-15T14:33:08.776Z,40.29
2024-03-15T14:35:36.018Z,39.50
2024-03-15T14:38:05.896Z,39.85
2024-03-15T14:40:36.580Z,39.89
2024-03-15T14:43:04.740Z,39.49
2024-03-15T14:45:32.665Z,39.73
2024-03-15T14:48:06.872Z,39.97
2024-03-15T14:50:40.395Z,39.50
2024-03-15T14:53:07.285Z,40.08
2024-03-15T14:55:42.777Z,40.23
2024-03-15T14:58:13.534Z,40.24
2024-03-15T15:00:42.614Z,39.68
2024-03-15T15:03:10.409Z,39.76
2024-03-15T15:05:38.614Z,39.50
2024-03-15T15:08:07.286Z,40.00
2024-03-15T15:10:41.777Z,39.89
2024-03-15T15:13:11.189Z,39.95
2024-03-15T15:15:39.970Z,40.04
2024-03-15T15:18:08.373Z,40.37
2024-03-15T15:20:35.574Z,40.06
2024-03-15T15:23:06.993Z,39.92
2024-03-15T15:25:36.463Z,39.88
2024-03-15T15:28:04.056Z,39.68
2024-03-15T15:30:33.757Z,40.08
2024-03-15T15:33:00.990Z,40.38
2024-03-15T15:35:28.780Z,40.80
2024-03-15T15:37:56.217Z,40.03
2024-03-15T15:40:30.780Z,40.61
2024-03-15T15:42:59.109Z,39.93
2024-03-15T15:45:32.957Z,40.76
2024-03-15T15:48:01.405Z,40.01
2024-03-15T15:50:29.643Z,40.13
2024-03-15T15:52:56.524Z,40.66
2024-03-15T15:55:24.370Z,40.45
2024-03-15T15:57:55.426Z,40.07
2024-03-15T16:00:23.615Z,39.58
2024-03-15T16:02:51.138Z,39.57
2024-03-15T16:05:18.726Z,39.86
2024-03-15T16:07:46.352Z,40.45
2024-03-15T16:10:14.993Z,40.04
2024-03-15T16:12:44.435Z,40.64
2024-03-15T16:15:12.046Z,41.00
2024-03-15T16:17:39.016Z,40.68
2024-03-15T16:20:06.524Z,40.70
2024-03-15T16:22:34.738Z,40.91
2024-03-15T16:25:03.606Z,41.20
2024-03-15T16:27:30.884Z,40.79
2024-03-15T16:29:57.960Z,40.94
2024-03-15T16:32:25.200Z,41.00
2024-03-15T16:34:52.265Z,40.93
2024-03-15T16:37:19.024Z,41.14
2024-03-15T16:39:46.301Z,41.12
2024-03-15T16:42:15.250Z,41.11
2024-03-15T16:44:44.662Z,41.42
2024-03-15T16:47:11.772Z,41.45
2024-03-15T16:49:38.924Z,41.46
2024-03-15T16:52:06.775Z,41.79
2024-03-15T16:54:34.349Z,42.49
2024-03-15T16:57:01.179Z,41.92
2024-03-15T16:59:28.329Z,41.77
2024-03-15T17:01:55.570Z,41.51
2024-03-15T17:04:22.775Z,41.03
2024-03-15T17:06:50.747Z,41.62
2024-03-15T17:09:19.423Z,40.96
2024-03-15T17:11:46.360Z,41.70
2024-03-15T17:14:14.065Z,40.92
2024-03-15T17:16:40.872Z,40.79
2024-03-15T17:19:08.248Z,40.90
2024-03-15T17:21:35.053Z,41.58
2024-03-15T17:24:02.212Z,41.73
2024-03-15T17:26:29.127Z,41.57
2024-03-15T17:28:56.234Z,41.10
2024-03-15T17:31:23.191Z,41.65
2024-03-15T17:33:50.461Z,41.95
2024-03-15T17:36:22.446Z,41.60
2024-03-15T17:38:49.911Z,41.50
2024-03-15T17:41:16.810Z,41.46
2024-03-15T17:43:43.929Z,41.55
2024-03-15T17:46:11.283Z,42.26
2024-03-15T17:48:39.664Z,41.50
2024-03-15T17:51:07.689Z,41.73
2024-03-15T17:53:34.759Z,42.16
2024-03-15T17:56:01.522Z,41.99
2024-03-15T17:58:29.537Z,42.14
2024-03-15T18:00:59.309Z,41.76
2024-03-15T18:03:26.677Z,42.17
2024-03-15T18:05:53.587Z,42.26
2024-03-15T18:08:20.746Z,42.84
2024-03-15T18:10:47.528Z,42.72
2024-03-15T18:13:15.734Z,42.74
2024-03-15T18:15:42.573Z,42.69
2024-03-15T18:18:12.491Z,42.44
2024-03-15T18:20:39.652Z,43.12
2024-03-15T18:23:06.888Z,43.33
2024-03-15T18:25:33.666Z,43.17
2024-03-15T18:28:01.254Z,43.15
2024-03-15T18:30:28.222Z,43.78
2024-03-15T18:32:55.376Z,43.15
2024-03-15T18:35:22.172Z,43.00
2024-03-15T18:37:49.293Z,43.52
2024-03-15T18:40:16.161Z,42.60
2024-03-15T18:42:44.355Z,42.79
2024-03-15T18:45:11.432Z,43.54
2024-03-15T18:47:43.487Z,43.36
2024-03-15T18:50:14.420Z,43.05
2024-03-15T18:52:41.679Z,43.09
2024-03-15T18:55:15.438Z,42.95
2024-03-15T18:57:42.943Z,43.00
2024-03-15T19:00:14.522Z,42.76
2024-03-15T19:02:42.885Z,42.87
2024-03-15T19:05:10.403Z,43.07
2024-03-15T19:07:38.224Z,43.19
2024-03-15T19:10:08.576Z,43.12
2024-03-15T19:12:36.491Z,42.88
2024-03-15T19:15:07.633Z,42.94
2024-03-15T19:17:41.221Z,42.63
2024-03-15T19:20:09.915Z,42.65
2024-03-15T19:22:37.406Z,42.63
2024-03-15T19:25:06.672Z,43.09
2024-03-15T19:27:34.027Z,42.79
2024-03-15T19:30:00.973Z,43.24
2024-03-15T19:32:32.318Z,42.91
2024-03-15T19:35:00.522Z,43.23
2024-03-15T19:37:28.109Z,43.11
2024-03-15T19:39:55.052Z,43.06
2024-03-15T19:42:22.346Z,43.25
2024-03-15T19:44:49.247Z,42.85
2024-03-15T19:47:16.397Z,43.27
2024-03-15T19:49:43.249Z,43.87
2024-03-15T19:52:10.364Z,43.53
2024-03-15T19:54:37.229Z,43.92
2024-03-15T19:57:05.147Z,43.16
2024-03-15T19:59:34.893Z,43.14
2024-03-15T20:02:03.941Z,43.19
2024-03-15T20:04:31.825Z,43.47
2024-03-15T20:07:00.843Z,43.51
2024-03-15T20:09:28.308Z,43.44
2024-03-15T20:11:55.558Z,43.61
2024-03-15T20:14:22.402Z,43.08
2024-03-15T20:16:51.615Z,43.07
2024-03-15T20:19:21.018Z,43.19
2024-03-15T20:21:48.280Z,43.78
2024-03-15T20:24:18.669Z,43.44
2024-03-15T20:26:49.468Z,42.96
2024-03-15T20:29:17.124Z,43.10
2024-03-15T20:31:44.722Z,43.64
2024-03-15T20:34:11.639Z,43.07
2024-03-15T20:36:39.193Z,43.39
2024-03-15T20:39:06.969Z,43.78
2024-03-15T20:41:34.690Z,43.28
2024-03-15T20:44:01.465Z,43.62
2024-03-15T20:46:28.779Z,43.59
2024-03-15T20:48:57.855Z,43.29
2024-03-15T20:51:26.017Z,43.38
2024-03-15T20:53:53.346Z,43.16
2024-03-15T20:56:21.217Z,43.62
2024-03-15T20:58:48.658Z,43.45
2024-03-15T21:01:15.873Z,43.88
2024-03-15T21:03:43.042Z,43.67
2024-03-15T21:06:12.729Z,43.34
2024-03-15T21:08:39.618Z,43.82
2024-03-15T21:11:06.711Z,43.72
2024-03-15T21:13:34.776Z,43.67
2024-03-15T21:16:02.433Z,43.27
2024-03-15T21:18:29.454Z,43.66
2024-03-15T21:20:57.116Z,43.30
2024-03-15T21:23:23.935Z,43.34
2024-03-15T21:25:51.694Z,43.47
2024-03-15T21:28:18.499Z,43.37
2024-03-15T21:30:45.607Z,43.68
2024-03-15T21:33:12.602Z,43.93
2024-03-15T21:35:39.799Z,43.29
2024-03-15T21:38:12.352Z,43.92
2024-03-15T21:40:39.406Z,43.61
2024-03-15T21:43:08.953Z,43.83
2024-03-15T21:45:36.227Z,43.73
2024-03-15T21:48:04.434Z,43.62
2024-03-15T21:50:31.673Z,43.50
2024-03-15T21:52:58.529Z,43.70
2024-03-15T21:55:25.700Z,43.90
2024-03-15T21:57:52.574Z,43.88
2024-03-15T22:00:27.445Z,43.81
2024-03-15T22:02:56.639Z,43.69
2024-03-15T22:05:23.817Z,44.07
2024-03-15T22:07:50.676Z,44.03
2024-03-15T22:10:17.909Z,44.20
2024-03-15T22:12:48.198Z,44.01
2024-03-15T22:15:17.504Z,44.33
2024-03-15T22:17:44.603Z,43.95
2024-03-15T22:20:12.897Z,44.47
2024-03-15T22:22:39.924Z,44.11
2024-03-15T22:25:19.139Z,44.39
2024-03-15T22:27:54.284Z,44.34
2024-03-15T22:30:21.728Z,44.20
2024-03-15T22:32:48.789Z,44.21
2024-03-15T22:35:16.039Z,44.35
2024-03-15T22:37:42.917Z,44.53
2024-03-15T22:40:15.347Z,44.24
2024-03-15T22:42:42.726Z,44.17
2024-03-15T22:45:09.983Z,44.61
2024-03-15T22:47:37.875Z,44.58
2024-03-15T22:50:09.281Z,44.32
2024-03-15T22:52:36.218Z,44.41
2024-03-15T22:55:03.641Z,44.46
2024-03-15T22:57:30.714Z,44.19
2024-03-15T22:59:57.973Z,44.51
2024-03-15T23:02:24.837Z,44.57
2024-03-15T23:04:51.997Z,44.46
2024-03-15T23:07:22.941Z,44.20
2024-03-15T23:09:51.114Z,44.68
2024-03-15T23:12:18.872Z,44.68
2024-03-15T23:14:49.000Z,44.48
2024-03-15T23:17:15.802Z,44.54
2024-03-15T23:19:44.188Z,44.42
2024-03-15T23:22:11.859Z,44.68
2024-03-15T23:24:39.479Z,44.57
2024-03-15T23:27:06.369Z,44.40
2024-03-15T23:29:33.730Z,44.43
2024-03-15T23:32:00.843Z,44.51
2024-03-15T23:34:28.166Z,44.64
2024-03-15T23:36:54.988Z,44.77
2024-03-15T23:39:22.626Z,44.55
2024-03-15T23:41:49.708Z,44.71
2024-03-15T23:44:16.863Z,44.50
2024-03-15T23:46:44.809Z,44.74
2024-03-15T23:49:13.844Z,44.72
2024-03-15T23:51:41.125Z,44.93
2024-03-15T23:54:09.745Z,44.52
2024-03-15T23:56:36.604Z,44.80
2024-03-15T23:59:03.752Z,44.72
